Time;durP1;ratioP1;P1;durP2;ratioP2;P2;SDS_P1;SDS_P2;PMS_P1;PMS_P2;Temp;Humidity;BMP_temperature;BMP_pressure;BME280_temperature;BME280_humidity;BME280_pressure;Samples;Min_cycle;Max_cycle;Signal;HPM_P1;HPM_P2
2023/09/04 00:01:55;;;;;;;5.60;4.95;;;19.80;68.80;;;;;;5010404;28;20030;-67
2023/09/04 00:04:21;;;;;;;5.60;5.03;;;19.70;68.80;;;;;;5013085;28;20025;-67
2023/09/04 00:06:47;;;;;;;5.57;5.07;;;19.70;68.80;;;;;;5007905;28;20033;-67
2023/09/04 00:09:15;;;;;;;5.72;5.22;;;19.70;68.90;;;;;;5008983;28;20516;-68
2023/09/04 00:11:41;;;;;;;5.75;5.25;;;19.70;69.00;;;;;;5005993;28;20061;-67
2023/09/04 00:14:07;;;;;;;5.60;5.10;;;19.70;69.10;;;;;;5006214;28;20053;-68
2023/09/04 00:16:34;;;;;;;5.57;5.07;;;19.70;69.10;;;;;;5009219;28;20043;-68
2023/09/04 00:19:02;;;;;;;5.82;5.22;;;19.70;69.10;;;;;;5009557;28;20025;-68
2023/09/04 00:21:27;;;;;;;5.95;5.35;;;19.60;68.90;;;;;;5010006;28;20360;-68
2023/09/04 00:23:53;;;;;;;5.57;5.07;;;19.60;69.10;;;;;;5012007;28;20025;-68
2023/09/04 00:26:19;;;;;;;6.22;5.35;;;19.60;69.10;;;;;;5007969;28;20087;-68
2023/09/04 00:28:47;;;;;;;5.95;5.35;;;19.60;69.20;;;;;;5014053;28;20508;-68
2023/09/04 00:31:14;;;;;;;5.32;4.82;;;19.60;69.20;;;;;;5008112;28;20021;-69
2023/09/04 00:33:40;;;;;;;5.20;4.63;;;19.60;69.30;;;;;;5010958;28;20037;-68
2023/09/04 00:36:06;;;;;;;5.13;4.63;;;19.50;69.20;;;;;;5010824;28;20033;-68
2023/09/04 00:38:32;;;;;;;5.65;5.15;;;19.50;69.30;;;;;;5013072;28;20065;-69
2023/09/04 00:40:58;;;;;;;5.07;4.68;;;19.50;69.30;;;;;;5015677;28;20034;-69
2023/09/04 00:43:33;;;;;;;5.63;5.15;;;19.40;69.20;;;;;;5005363;28;20030;-68
2023/09/04 00:45:59;;;;;;;6.72;5.60;;;19.40;69.30;;;;;;5014859;28;20053;-68
2023/09/04 00:48:25;;;;;;;5.82;4.82;;;19.40;69.30;;;;;;5010303;28;20057;-68
2023/09/04 00:50:51;;;;;;;5.78;4.68;;;19.40;69.40;;;;;;5020224;28;20563;-69
2023/09/04 00:53:17;;;;;;;5.28;4.80;;;19.40;69.40;;;;;;5011449;28;20045;-68
2023/09/04 00:55:43;;;;;;;5.05;4.55;;;19.40;69.50;;;;;;5008838;28;20132;-69
2023/09/04 00:58:10;;;;;;;5.47;4.97;;;19.40;69.60;;;;;;5014225;28;20037;-69
2023/09/04 01:00:37;;;;;;;5.22;4.72;;;19.40;69.70;;;;;;5014859;28;20359;-68
2023/09/04 01:03:03;;;;;;;5.63;5.13;;;19.40;69.70;;;;;;5015517;28;20072;-69
2023/09/04 01:05:31;;;;;;;5.60;5.10;;;19.30;69.60;;;;;;5003230;28;20034;-69
2023/09/04 01:07:59;;;;;;;5.32;4.93;;;19.30;69.70;;;;;;5010739;28;20034;-69
2023/09/04 01:10:30;;;;;;;5.18;4.68;;;19.30;69.70;;;;;;5005073;28;20422;-68
2023/09/04 01:13:07;;;;;;;4.85;4.30;;;19.30;69.80;;;;;;5004769;28;20071;-68
2023/09/04 01:15:34;;;;;;;5.63;4.75;;;19.20;69.70;;;;;;5004687;28;20128;-68
2023/09/04 01:18:01;;;;;;;5.68;4.43;;;19.20;69.70;;;;;;5005007;28;20037;-68
2023/09/04 01:20:29;;;;;;;4.82;4.43;;;19.20;69.80;;;;;;5000981;28;20030;-68
2023/09/04 01:22:56;;;;;;;6.07;4.72;;;19.20;69.80;;;;;;5006201;28;20029;-68
2023/09/04 01:25:41;;;;;;;5.35;4.95;;;19.20;69.80;;;;;;5011716;28;20499;-68
2023/09/04 01:28:22;;;;;;;5.03;4.32;;;19.20;69.90;;;;;;5006863;28;20615;-68
2023/09/04 01:31:08;;;;;;;5.07;4.22;;;19.10;69.70;;;;;;5008860;28;20955;-68
2023/09/04 01:33:40;;;;;;;5.32;4.68;;;19.10;69.80;;;;;;5008431;28;20087;-68
2023/09/04 01:36:10;;;;;;;4.28;3.97;;;19.10;69.80;;;;;;5007354;28;20328;-69
2023/09/04 01:38:37;;;;;;;5.13;4.57;;;19.00;69.60;;;;;;5003005;28;20489;-68
2023/09/04 01:41:07;;;;;;;4.78;4.43;;;19.00;69.70;;;;;;5013412;28;20037;-71
2023/09/04 01:43:33;;;;;;;4.97;4.57;;;19.00;69.80;;;;;;5006007;28;20292;-70
2023/09/04 01:45:59;;;;;;;4.82;4.43;;;19.00;69.80;;;;;;5020663;28;20240;-68
2023/09/04 01:48:25;;;;;;;5.45;4.47;;;18.90;69.70;;;;;;5006673;28;20041;-69
2023/09/04 01:50:53;;;;;;;5.40;4.40;;;18.90;69.80;;;;;;5012855;28;20065;-68
2023/09/04 01:53:22;;;;;;;4.82;4.43;;;18.90;69.80;;;;;;5013866;28;20032;-68
2023/09/04 01:55:48;;;;;;;5.80;4.88;;;18.90;69.90;;;;;;5010554;28;20030;-68
2023/09/04 01:58:15;;;;;;;5.05;4.65;;;18.90;69.90;;;;;;5017660;28;20106;-68
2023/09/04 02:00:43;;;;;;;4.57;4.20;;;18.80;69.80;;;;;;5006433;28;20084;-68
2023/09/04 02:03:09;;;;;;;4.60;4.20;;;18.90;70.10;;;;;;5007262;28;20057;-68
2023/09/04 02:05:39;;;;;;;6.10;4.78;;;18.80;70.00;;;;;;5010124;28;20048;-68
2023/09/04 02:08:07;;;;;;;4.38;3.97;;;18.80;70.10;;;;;;5009245;28;20284;-68
2023/09/04 02:10:35;;;;;;;4.40;4.00;;;18.80;70.10;;;;;;5019887;28;20037;-68
2023/09/04 02:13:02;;;;;;;4.80;4.40;;;18.80;70.10;;;;;;5010388;28;20044;-68
2023/09/04 02:15:30;;;;;;;4.90;4.40;;;18.70;70.00;;;;;;5019654;28;20057;-68
2023/09/04 02:17:56;;;;;;;4.40;4.00;;;18.70;70.10;;;;;;5022574;28;20042;-68
2023/09/04 02:20:22;;;;;;;5.15;4.75;;;18.70;70.10;;;;;;5014737;28;20020;-68
2023/09/04 02:22:48;;;;;;;5.22;4.70;;;18.70;70.10;;;;;;5011834;28;20572;-68
2023/09/04 02:25:14;;;;;;;5.80;3.97;;;18.70;70.20;;;;;;5007113;28;20172;-68
2023/09/04 02:27:40;;;;;;;5.30;4.80;;;18.60;70.10;;;;;;5014233;28;20073;-67
2023/09/04 02:30:08;;;;;;;4.60;4.15;;;18.60;70.10;;;;;;5006419;28;20042;-67
2023/09/04 02:32:34;;;;;;;4.65;4.22;;;18.60;70.20;;;;;;5015132;28;20120;-67
2023/09/04 02:35:01;;;;;;;5.72;5.22;;;18.60;70.20;;;;;;5008386;28;20034;-68
2023/09/04 02:37:28;;;;;;;4.80;4.40;;;18.60;70.30;;;;;;5012213;28;20088;-68
2023/09/04 02:39:54;;;;;;;8.68;5.07;;;18.60;70.30;;;;;;5014299;28;20033;-68
2023/09/04 02:42:20;;;;;;;5.53;4.97;;;18.50;70.20;;;;;;5010698;28;20129;-69
2023/09/04 02:44:46;;;;;;;4.82;4.43;;;18.50;70.20;;;;;;4999780;28;20038;-67
2023/09/04 02:47:13;;;;;;;4.70;4.30;;;18.50;70.30;;;;;;5005888;28;20129;-68
2023/09/04 02:49:39;;;;;;;5.07;4.68;;;18.50;70.30;;;;;;5009717;28;20120;-68
2023/09/04 02:52:06;;;;;;;5.38;4.97;;;18.50;70.40;;;;;;5005706;28;20242;-67
2023/09/04 02:54:32;;;;;;;5.22;4.82;;;18.50;70.40;;;;;;5011775;28;20025;-69
2023/09/04 02:56:59;;;;;;;5.15;4.65;;;18.40;70.30;;;;;;5005575;28;20075;-69
2023/09/04 02:59:26;;;;;;;5.05;4.65;;;18.40;70.30;;;;;;5008129;28;20131;-68
2023/09/04 03:01:52;;;;;;;5.03;4.63;;;18.40;70.40;;;;;;5008920;28;20079;-69
2023/09/04 03:04:18;;;;;;;5.72;5.22;;;18.40;70.50;;;;;;5014973;28;20530;-69
2023/09/04 03:06:44;;;;;;;5.57;4.82;;;18.40;70.50;;;;;;5012200;28;20040;-68
2023/09/04 03:09:10;;;;;;;5.38;4.88;;;18.40;70.60;;;;;;5016482;28;20033;-69
2023/09/04 03:11:37;;;;;;;5.45;5.05;;;18.30;70.40;;;;;;5017550;28;20206;-69
2023/09/04 03:14:02;;;;;;;6.00;5.55;;;18.30;70.50;;;;;;5008161;28;20161;-67
2023/09/04 03:16:29;;;;;;;6.00;5.40;;;18.30;70.50;;;;;;5012635;28;20033;-67
2023/09/04 03:18:55;;;;;;;5.63;5.15;;;18.30;70.60;;;;;;5014277;28;20040;-67
2023/09/04 03:21:21;;;;;;;6.32;5.72;;;18.30;70.70;;;;;;5013627;28;20033;-68
2023/09/04 03:23:51;;;;;;;8.30;6.00;;;18.20;70.50;;;;;;5018773;28;20025;-68
2023/09/04 03:26:19;;;;;;;6.82;5.88;;;18.30;70.80;;;;;;5000716;28;20029;-69
2023/09/04 03:28:46;;;;;;;6.60;5.88;;;18.20;70.60;;;;;;5013109;28;20059;-67
2023/09/04 03:31:14;;;;;;;6.85;5.28;;;18.20;70.70;;;;;;5017080;28;20033;-68
2023/09/04 03:33:41;;;;;;;6.40;5.88;;;18.20;70.80;;;;;;5010327;28;20034;-67
2023/09/04 03:36:11;;;;;;;6.95;6.35;;;18.20;70.80;;;;;;5010222;28;20041;-68
2023/09/04 03:38:38;;;;;;;6.78;6.10;;;18.20;70.80;;;;;;5012703;28;20620;-68
2023/09/04 03:41:04;;;;;;;6.95;6.35;;;18.20;70.90;;;;;;5014384;28;20359;-69
2023/09/04 03:43:30;;;;;;;7.07;6.38;;;18.20;70.90;;;;;;5011267;28;20068;-69
2023/09/04 03:45:56;;;;;;;6.93;6.32;;;18.10;70.80;;;;;;5012671;28;20029;-68
2023/09/04 03:48:22;;;;;;;6.22;5.72;;;18.10;70.80;;;;;;5010151;28;20050;-68
2023/09/04 03:50:49;;;;;;;6.68;6.07;;;18.10;70.90;;;;;;5014281;28;20061;-69
2023/09/04 03:53:15;;;;;;;7.60;6.80;;;18.10;70.90;;;;;;5011270;28;20030;-69
2023/09/04 03:55:42;;;;;;;6.63;6.13;;;18.10;70.90;;;;;;5008948;28;20041;-67
2023/09/04 03:58:11;;;;;;;5.97;5.45;;;18.10;71.00;;;;;;5015665;28;20037;-66
2023/09/04 04:00:36;;;;;;;6.88;6.28;;;18.10;71.00;;;;;;5009764;28;20029;-68
2023/09/04 04:03:04;;;;;;;6.43;5.82;;;18.00;70.90;;;;;;5010914;28;20413;-68
2023/09/04 04:05:30;;;;;;;6.53;5.82;;;18.00;70.90;;;;;;5014046;28;20030;-68
2023/09/04 04:07:56;;;;;;;7.13;6.43;;;18.00;71.00;;;;;;5020258;28;20076;-67
2023/09/04 04:10:23;;;;;;;7.43;6.28;;;18.00;71.00;;;;;;5022237;28;20489;-67
2023/09/04 04:12:53;;;;;;;6.63;6.13;;;18.00;71.10;;;;;;5016637;28;20508;-68
2023/09/04 04:15:19;;;;;;;7.47;6.82;;;18.00;71.20;;;;;;5020961;28;20455;-67
2023/09/04 04:17:45;;;;;;;7.03;6.32;;;18.00;71.20;;;;;;5018522;28;20120;-68
2023/09/04 04:20:11;;;;;;;7.10;6.30;;;17.90;71.10;;;;;;5022102;28;20087;-68
2023/09/04 04:22:41;;;;;;;7.65;6.55;;;18.00;71.20;;;;;;5011000;28;20030;-68
2023/09/04 04:25:08;;;;;;;7.50;6.80;;;17.90;71.20;;;;;;5016546;28;20397;-67
2023/09/04 04:27:34;;;;;;;7.15;6.47;;;17.90;71.20;;;;;;5018136;28;20037;-68
2023/09/04 04:30:00;;;;;;;7.45;6.70;;;17.90;71.20;;;;;;4996865;28;20132;-68
2023/09/04 04:32:32;;;;;;;7.78;6.97;;;17.90;71.30;;;;;;5011167;28;20034;-68
2023/09/04 04:34:58;;;;;;;7.90;7.20;;;17.90;71.40;;;;;;5013588;28;20568;-68
2023/09/04 04:37:25;;;;;;;8.85;8.05;;;17.90;71.40;;;;;;5015061;28;20038;-68
2023/09/04 04:39:52;;;;;;;7.93;7.25;;;17.90;71.50;;;;;;5011741;28;20087;-68
2023/09/04 04:42:19;;;;;;;8.48;7.78;;;17.90;71.60;;;;;;5016662;28;20155;-68
2023/09/04 04:44:46;;;;;;;7.82;7.13;;;17.80;71.40;;;;;;5010748;28;20034;-68
2023/09/04 04:47:13;;;;;;;8.95;8.10;;;17.80;71.50;;;;;;5015825;28;20261;-68
2023/09/04 04:49:39;;;;;;;8.40;7.60;;;17.80;71.50;;;;;;5019582;28;20037;-69
2023/09/04 04:52:05;;;;;;;9.45;8.60;;;17.80;71.60;;;;;;5018658;28;20053;-68
2023/09/04 04:54:32;;;;;;;7.63;7.00;;;17.80;71.60;;;;;;5022568;28;20550;-68
2023/09/04 04:56:57;;;;;;;8.60;7.88;;;17.80;71.60;;;;;;5022005;28;20048;-68
2023/09/04 04:59:23;;;;;;;8.15;7.45;;;17.80;71.60;;;;;;5012409;28;20451;-66
2023/09/04 05:01:49;;;;;;;9.20;8.40;;;17.70;71.50;;;;;;5021142;28;20040;-67
2023/09/04 05:04:15;;;;;;;9.45;8.65;;;17.70;71.50;;;;;;5014548;28;20033;-67
2023/09/04 05:06:42;;;;;;;9.50;8.50;;;17.70;71.60;;;;;;5017562;28;20385;-66
2023/09/04 05:09:08;;;;;;;9.30;8.40;;;17.70;71.70;;;;;;5017258;28;20481;-68
2023/09/04 05:11:34;;;;;;;9.13;8.30;;;17.70;71.70;;;;;;5019937;28;20044;-69
2023/09/04 05:14:00;;;;;;;8.70;8.00;;;17.70;71.70;;;;;;5012028;28;20041;-69
2023/09/04 05:16:27;;;;;;;9.70;8.88;;;17.70;72.30;;;;;;5025574;28;20036;-68
2023/09/04 05:18:54;;;;;;;9.88;9.07;;;17.70;71.80;;;;;;5011342;28;20048;-68
2023/09/04 05:21:21;;;;;;;9.07;8.27;;;17.70;71.90;;;;;;5027752;28;20022;-68
2023/09/04 05:23:50;;;;;;;9.07;8.23;;;17.70;71.90;;;;;;5014763;28;20075;-68
2023/09/04 05:26:16;;;;;;;10.93;9.80;;;17.60;71.80;;;;;;5013679;28;20478;-69
2023/09/04 05:28:43;;;;;;;10.95;9.85;;;17.70;72.00;;;;;;5015953;28;20037;-68
2023/09/04 05:31:09;;;;;;;10.00;9.00;;;17.70;72.00;;;;;;5016229;28;20029;-68
2023/09/04 05:33:35;;;;;;;11.35;10.35;;;17.70;72.00;;;;;;5010455;28;20037;-67
2023/09/04 05:36:01;;;;;;;10.68;9.40;;;17.70;72.10;;;;;;5012640;28;20393;-67
2023/09/04 05:38:27;;;;;;;10.45;9.52;;;17.70;72.10;;;;;;5015593;28;20041;-69
2023/09/04 05:40:54;;;;;;;10.43;9.52;;;17.70;72.10;;;;;;5014007;28;20029;-69
2023/09/04 05:43:21;;;;;;;10.50;9.60;;;17.60;72.00;;;;;;5011371;28;20129;-69
2023/09/04 05:45:48;;;;;;;10.85;9.82;;;17.60;72.00;;;;;;5015766;28;20040;-68
2023/09/04 05:48:14;;;;;;;11.05;9.88;;;17.70;72.20;;;;;;5015492;28;20077;-67
2023/09/04 05:50:39;;;;;;;11.18;9.77;;;17.70;72.30;;;;;;5015577;28;20612;-67
2023/09/04 05:53:05;;;;;;;12.13;10.20;;;17.70;72.70;;;;;;5006377;28;20038;-68
2023/09/04 05:55:35;;;;;;;13.70;11.10;;;17.70;73.40;;;;;;5007937;28;20489;-68
2023/09/04 05:58:02;;;;;;;11.88;10.75;;;17.80;74.60;;;;;;5014562;28;20049;-68
2023/09/04 06:00:28;;;;;;;12.30;11.10;;;17.90;74.30;;;;;;5009146;28;20173;-68
2023/09/04 06:02:54;;;;;;;14.80;13.30;;;18.00;74.50;;;;;;5011244;28;20488;-68
2023/09/04 06:05:24;;;;;;;14.43;12.90;;;18.00;74.50;;;;;;5008570;28;20025;-67
2023/09/04 06:07:50;;;;;;;16.17;12.70;;;18.00;74.50;;;;;;5017158;28;20903;-67
2023/09/04 06:10:17;;;;;;;13.27;11.85;;;18.00;74.60;;;;;;5007693;28;20032;-68
2023/09/04 06:12:44;;;;;;;17.30;13.15;;;18.00;75.10;;;;;;5009146;28;20485;-68
2023/09/04 06:15:10;;;;;;;14.45;12.38;;;18.10;75.70;;;;;;5011052;28;20095;-67
2023/09/04 06:17:37;;;;;;;14.77;12.70;;;18.20;76.10;;;;;;5012504;28;20037;-68
2023/09/04 06:20:04;;;;;;;18.30;13.25;;;18.20;76.10;;;;;;5010454;28;20030;-68
2023/09/04 06:22:31;;;;;;;13.45;11.85;;;18.30;76.20;;;;;;5006153;28;20131;-68
2023/09/04 06:24:57;;;;;;;14.85;13.30;;;18.40;76.30;;;;;;5007653;28;20099;-68
2023/09/04 06:27:24;;;;;;;16.40;13.82;;;18.50;76.40;;;;;;5010181;28;20038;-68
2023/09/04 06:29:51;;;;;;;15.52;13.68;;;18.50;76.20;;;;;;5013077;28;20025;-67
2023/09/04 06:32:19;;;;;;;15.23;13.63;;;18.50;76.10;;;;;;5011267;28;20069;-68
2023/09/04 06:34:45;;;;;;;14.73;13.18;;;18.60;76.20;;;;;;5008879;28;20034;-67
2023/09/04 06:37:12;;;;;;;15.35;13.85;;;18.70;76.20;;;;;;5013636;28;20076;-68
2023/09/04 06:39:38;;;;;;;17.48;15.13;;;18.70;76.10;;;;;;5012560;28;20030;-68
2023/09/04 06:42:05;;;;;;;16.05;14.35;;;18.80;76.20;;;;;;5010681;28;20152;-67
2023/09/04 06:44:32;;;;;;;17.70;15.90;;;18.90;76.20;;;;;;5006721;28;20579;-68
2023/09/04 06:46:59;;;;;;;18.17;16.27;;;18.90;76.10;;;;;;5007033;28;20784;-68
2023/09/04 06:49:25;;;;;;;18.70;16.35;;;19.00;76.10;;;;;;5009825;28;20441;-69
2023/09/04 06:51:52;;;;;;;20.75;17.98;;;19.10;76.20;;;;;;5009396;28;20057;-68
2023/09/04 06:54:18;;;;;;;19.33;15.27;;;19.20;76.20;;;;;;5003442;28;20041;-69
2023/09/04 06:56:50;;;;;;;18.35;16.50;;;19.20;76.00;;;;;;5005640;28;20489;-68
2023/09/04 06:59:26;;;;;;;16.48;14.80;;;19.30;75.90;;;;;;5006913;28;20042;-68
2023/09/04 07:01:53;;;;;;;18.95;16.95;;;19.40;75.90;;;;;;5010756;28;20022;-69
2023/09/04 07:04:19;;;;;;;19.98;18.08;;;19.50;75.90;;;;;;5012296;28;20033;-68
2023/09/04 07:06:48;;;;;;;18.17;15.90;;;19.60;76.00;;;;;;5013268;28;20041;-68
2023/09/04 07:09:14;;;;;;;23.83;17.27;;;19.60;75.90;;;;;;5013880;28;20112;-68
2023/09/04 07:11:40;;;;;;;20.50;17.77;;;19.70;75.90;;;;;;5009017;28;20041;-68
2023/09/04 07:14:07;;;;;;;20.05;17.88;;;19.70;75.80;;;;;;5010296;28;20021;-68
2023/09/04 07:16:37;;;;;;;17.80;16.05;;;19.80;75.90;;;;;;5013754;28;20632;-68
2023/09/04 07:19:06;;;;;;;18.67;16.92;;;19.80;75.80;;;;;;5014594;28;20488;-68
2023/09/04 07:21:33;;;;;;;19.60;17.48;;;19.90;75.80;;;;;;5011295;28;20044;-68
2023/09/04 07:23:59;;;;;;;18.70;16.75;;;19.90;75.70;;;;;;5010436;28;20120;-68
2023/09/04 07:26:25;;;;;;;19.80;17.80;;;20.00;75.70;;;;;;5013684;28;20580;-68
2023/09/04 07:28:53;;;;;;;21.35;19.23;;;20.00;75.60;;;;;;5008848;28;20045;-68
2023/09/04 07:31:20;;;;;;;20.08;17.45;;;20.00;75.40;;;;;;5010422;28;20075;-68
2023/09/04 07:33:47;;;;;;;22.25;19.95;;;20.10;75.50;;;;;;5013940;28;20065;-68
2023/09/04 07:36:14;;;;;;;23.20;20.55;;;20.10;75.40;;;;;;5006313;28;20064;-68
2023/09/04 07:38:41;;;;;;;21.00;18.83;;;20.20;75.50;;;;;;5012584;28;20567;-69
2023/09/04 07:41:07;;;;;;;20.52;18.42;;;20.20;75.40;;;;;;5024641;28;20458;-68
2023/09/04 07:43:34;;;;;;;21.45;19.30;;;20.30;75.40;;;;;;5005720;28;20037;-68
2023/09/04 07:46:01;;;;;;;21.63;19.42;;;20.30;75.20;;;;;;5010569;28;20508;-67
2023/09/04 07:48:28;;;;;;;22.05;19.70;;;20.40;75.30;;;;;;5000116;28;20030;-68
2023/09/04 07:50:54;;;;;;;22.52;20.23;;;20.40;75.20;;;;;;5013982;28;20049;-68
2023/09/04 07:53:23;;;;;;;22.10;19.95;;;20.50;75.30;;;;;;5011114;28;20121;-68
2023/09/04 07:55:51;;;;;;;22.05;19.80;;;20.60;75.30;;;;;;5012180;28;21463;-68
2023/09/04 07:58:18;;;;;;;22.13;19.83;;;20.60;75.20;;;;;;5012424;28;20099;-68
2023/09/04 08:00:51;;;;;;;23.52;21.13;;;20.70;75.30;;;;;;5009524;28;20029;-68
2023/09/04 08:03:18;;;;;;;34.45;22.13;;;20.70;75.20;;;;;;5006422;28;20047;-68
2023/09/04 08:05:45;;;;;;;22.70;19.45;;;20.80;75.30;;;;;;5010366;28;20037;-68
2023/09/04 08:08:11;;;;;;;23.80;21.40;;;20.80;75.20;;;;;;5009135;28;20029;-68
2023/09/04 08:10:45;;;;;;;20.83;18.63;;;20.90;75.40;;;;;;5000395;28;20759;-68
2023/09/04 08:13:14;;;;;;;21.70;19.45;;;21.00;75.50;;;;;;5007816;28;20036;-68
2023/09/04 08:15:41;;;;;;;21.65;19.35;;;21.00;75.40;;;;;;5009553;28;20041;-68
2023/09/04 08:18:08;;;;;;;21.02;18.88;;;21.00;75.30;;;;;;5008944;28;20513;-68
2023/09/04 08:20:36;;;;;;;19.33;17.33;;;21.10;75.40;;;;;;5005094;28;20038;-68
2023/09/04 08:23:03;;;;;;;21.40;19.23;;;21.10;75.30;;;;;;5005428;28;20041;-67
2023/09/04 08:25:31;;;;;;;20.95;18.75;;;21.10;75.20;;;;;;5007252;28;20037;-68
2023/09/04 08:27:57;;;;;;;19.85;17.80;;;21.20;75.40;;;;;;5007516;28;20378;-68
2023/09/04 08:30:23;;;;;;;21.45;19.17;;;21.20;75.30;;;;;;5008806;28;20030;-68
2023/09/04 08:32:50;;;;;;;22.13;19.67;;;21.20;75.20;;;;;;5017047;28;20363;-68
2023/09/04 08:35:20;;;;;;;21.33;19.23;;;21.30;75.30;;;;;;5012037;28;20061;-67
2023/09/04 08:37:47;;;;;;;21.17;18.38;;;21.30;75.20;;;;;;5005680;28;20527;-67
2023/09/04 08:40:14;;;;;;;18.95;17.05;;;21.40;75.30;;;;;;5011768;28;20038;-68
2023/09/04 08:42:45;;;;;;;21.45;19.02;;;21.40;75.20;;;;;;5015962;28;20518;-67
2023/09/04 08:45:16;;;;;;;20.40;18.30;;;21.40;75.10;;;;;;5017218;28;20033;-67
2023/09/04 08:47:46;;;;;;;19.80;17.90;;;21.50;75.10;;;;;;5011732;28;20233;-67
2023/09/04 08:50:14;;;;;;;19.05;16.98;;;21.50;75.00;;;;;;5012209;28;20061;-68
2023/09/04 08:52:41;;;;;;;19.00;17.05;;;21.50;74.90;;;;;;5012265;28;20389;-68
2023/09/04 08:55:08;;;;;;;19.60;17.50;;;21.60;74.90;;;;;;5008505;28;20091;-68
2023/09/04 08:57:37;;;;;;;19.80;17.80;;;21.70;75.00;;;;;;5011394;28;20040;-68
2023/09/04 09:00:05;;;;;;;21.27;19.08;;;21.70;74.90;;;;;;5010979;28;20075;-68
2023/09/04 09:02:33;;;;;;;18.73;16.83;;;21.70;74.80;;;;;;5032007;28;20063;-68
2023/09/04 09:05:00;;;;;;;18.55;16.75;;;21.80;74.80;;;;;;5013679;28;20036;-68
2023/09/04 09:07:30;;;;;;;17.48;15.65;;;21.80;74.70;;;;;;5007335;28;20022;-68
2023/09/04 09:10:04;;;;;;;18.02;16.23;;;21.80;74.60;;;;;;5019413;28;20033;-68
2023/09/04 09:12:30;;;;;;;19.08;17.08;;;21.90;74.60;;;;;;5012526;28;20134;-68
2023/09/04 09:15:00;;;;;;;17.13;15.40;;;22.00;74.70;;;;;;5019207;28;20028;-68
2023/09/04 09:17:28;;;;;;;16.73;15.02;;;22.00;74.60;;;;;;5006620;28;20840;-67
2023/09/04 09:19:54;;;;;;;16.58;14.98;;;22.00;74.50;;;;;;5017980;28;20072;-68
2023/09/04 09:22:23;;;;;;;17.42;15.75;;;22.10;74.50;;;;;;5011708;28;20550;-68
2023/09/04 09:24:59;;;;;;;17.00;15.40;;;22.10;74.50;;;;;;5023775;28;20026;-69
2023/09/04 09:27:30;;;;;;;16.48;14.85;;;22.20;74.50;;;;;;5017085;28;20144;-68
2023/09/04 09:30:01;;;;;;;17.20;15.50;;;22.20;74.30;;;;;;5009817;28;20464;-67
2023/09/04 09:32:32;;;;;;;15.63;14.05;;;22.30;74.40;;;;;;5018328;28;20038;-68
2023/09/04 09:35:01;;;;;;;16.63;14.82;;;22.30;74.30;;;;;;5010377;28;20030;-68
2023/09/04 09:37:33;;;;;;;15.88;14.38;;;22.40;74.40;;;;;;5021798;28;20065;-67
2023/09/04 09:39:59;;;;;;;14.82;13.30;;;22.40;74.20;;;;;;5018192;28;20139;-68
2023/09/04 09:42:25;;;;;;;13.88;12.48;;;22.50;74.30;;;;;;5010667;28;20069;-68
2023/09/04 09:44:53;;;;;;;14.85;13.45;;;22.50;74.20;;;;;;5015590;28;20034;-68
2023/09/04 09:47:21;;;;;;;11.20;10.20;;;22.60;74.30;;;;;;5016376;28;20029;-67
2023/09/04 09:49:47;;;;;;;10.43;9.30;;;22.70;74.50;;;;;;5016615;28;20176;-67
2023/09/04 09:52:13;;;;;;;9.98;9.07;;;22.70;74.70;;;;;;4998936;28;20121;-67
2023/09/04 09:54:42;;;;;;;10.10;9.18;;;22.80;74.90;;;;;;5013765;28;20044;-67
2023/09/04 09:57:11;;;;;;;8.52;7.55;;;22.90;75.10;;;;;;5012957;28;20048;-67
2023/09/04 09:59:43;;;;;;;9.30;8.10;;;23.00;75.30;;;;;;5017838;28;20593;-67
2023/09/04 10:02:15;;;;;;;8.43;7.63;;;23.10;75.50;;;;;;5013924;28;20038;-67
2023/09/04 10:04:42;;;;;;;8.07;7.33;;;23.20;75.50;;;;;;5016700;28;20587;-67
2023/09/04 10:07:11;;;;;;;8.57;7.82;;;23.20;75.40;;;;;;5014955;28;20386;-67
2023/09/04 10:09:43;;;;;;;8.15;7.32;;;23.30;75.60;;;;;;5020131;28;20037;-67
2023/09/04 10:12:25;;;;;;;8.80;7.15;;;23.40;75.60;;;;;;5015228;28;20632;-67
2023/09/04 10:14:55;;;;;;;7.78;7.07;;;23.50;75.70;;;;;;5018729;28;20029;-67
2023/09/04 10:17:32;;;;;;;6.80;6.10;;;23.60;75.70;;;;;;5012506;28;20045;-67
2023/09/04 10:20:05;;;;;;;6.95;6.22;;;23.70;75.70;;;;;;5012731;28;20612;-67
2023/09/04 10:22:42;;;;;;;7.13;6.50;;;23.70;75.60;;;;;;5012646;28;20029;-68
2023/09/04 10:25:27;;;;;;;7.10;6.47;;;23.80;75.60;;;;;;5012074;28;20034;-68
2023/09/04 10:28:04;;;;;;;7.53;6.65;;;23.90;75.60;;;;;;5015924;28;20041;-67
2023/09/04 10:30:36;;;;;;;6.78;6.18;;;24.00;75.60;;;;;;5012007;28;20450;-67
2023/09/04 10:33:12;;;;;;;5.97;5.40;;;24.00;75.50;;;;;;5009459;28;20029;-67
2023/09/04 10:35:39;;;;;;;7.22;6.50;;;24.10;75.40;;;;;;5005034;28;20030;-67
2023/09/04 10:38:09;;;;;;;5.53;5.03;;;24.20;75.40;;;;;;5014488;28;20076;-67
2023/09/04 10:40:36;;;;;;;5.43;4.93;;;24.30;75.40;;;;;;5013005;28;20033;-67
2023/09/04 10:43:40;;;;;;;6.10;5.57;;;24.30;75.30;;;;;;5009451;28;20050;-68
2023/09/04 10:46:09;;;;;;;5.30;4.88;;;24.40;75.20;;;;;;5006293;28;20037;-67
2023/09/04 10:48:45;;;;;;;5.47;4.97;;;24.50;75.20;;;;;;5009013;28;20029;-67
2023/09/04 10:51:37;;;;;;;4.60;4.20;;;24.50;75.10;;;;;;5006905;28;20085;-67
2023/09/04 10:54:24;;;;;;;6.22;5.10;;;24.60;75.10;;;;;;5001868;28;20034;-67
2023/09/04 10:56:58;;;;;;;5.22;4.72;;;24.70;75.10;;;;;;5012768;28;20041;-67
2023/09/04 10:59:26;;;;;;;4.40;4.00;;;24.70;74.90;;;;;;5013755;28;20025;-67
2023/09/04 11:01:53;;;;;;;4.72;4.32;;;24.80;75.50;;;;;;5017988;28;20037;-67
2023/09/04 11:04:42;;;;;;;4.95;4.55;;;24.90;74.90;;;;;;5014669;28;20053;-67
2023/09/04 11:07:19;;;;;;;5.50;5.10;;;25.00;74.90;;;;;;5007300;28;20096;-67
2023/09/04 11:09:46;;;;;;;4.38;4.00;;;25.00;74.70;;;;;;5011348;28;20528;-67
2023/09/04 11:12:21;;;;;;;5.22;4.78;;;25.10;74.60;;;;;;5008917;28;20038;-68
2023/09/04 11:14:52;;;;;;;4.78;4.40;;;25.10;74.30;;;;;;5009531;28;20418;-67
2023/09/04 11:17:26;;;;;;;5.10;4.70;;;25.20;74.20;;;;;;5007986;28;20052;-67
2023/09/04 11:19:53;;;;;;;5.15;4.00;;;25.30;74.00;;;;;;5014787;28;20820;-67
2023/09/04 11:22:21;;;;;;;4.22;3.90;;;25.30;73.90;;;;;;5011776;28;20034;-68
2023/09/04 11:24:47;;;;;;;4.53;4.15;;;25.40;73.80;;;;;;5010880;28;20041;-67
2023/09/04 11:27:13;;;;;;;4.07;3.67;;;25.40;73.60;;;;;;5007269;28;20545;-67
2023/09/04 11:29:40;;;;;;;4.60;4.25;;;25.50;73.50;;;;;;5009837;28;20037;-67
2023/09/04 11:32:10;;;;;;;4.10;3.67;;;25.60;73.40;;;;;;5013759;28;20129;-68
2023/09/04 11:34:36;;;;;;;3.70;3.40;;;25.60;73.10;;;;;;5008775;28;20040;-67
2023/09/04 11:37:04;;;;;;;4.40;3.97;;;25.70;73.00;;;;;;5028158;28;20030;-68
2023/09/04 11:39:31;;;;;;;4.15;3.85;;;25.70;72.90;;;;;;5009172;28;20561;-68
2023/09/04 11:41:59;;;;;;;3.72;3.40;;;25.80;72.80;;;;;;5012306;28;20711;-68
2023/09/04 11:44:26;;;;;;;3.83;3.53;;;25.80;72.60;;;;;;5003454;28;20056;-67
2023/09/04 11:46:56;;;;;;;3.78;3.47;;;25.90;72.50;;;;;;5003389;28;20033;-67
2023/09/04 11:49:22;;;;;;;4.97;4.20;;;26.00;72.50;;;;;;5015817;28;20113;-68
2023/09/04 11:51:50;;;;;;;5.13;4.70;;;26.10;72.30;;;;;;5013447;28;20478;-67
2023/09/04 11:54:31;;;;;;;6.65;5.95;;;26.10;72.20;;;;;;5009982;28;20100;-68
2023/09/04 11:57:03;;;;;;;4.47;4.15;;;26.20;72.10;;;;;;5013190;28;20046;-68
2023/09/04 11:59:37;;;;;;;4.57;4.18;;;26.30;72.10;;;;;;5006907;28;20499;-67
2023/09/04 12:02:04;;;;;;;4.03;3.60;;;26.30;71.90;;;;;;5013748;28;20029;-68
2023/09/04 12:04:32;;;;;;;4.13;3.72;;;26.40;71.80;;;;;;5010024;28;20049;-67
2023/09/04 12:07:08;;;;;;;3.72;3.42;;;26.40;71.60;;;;;;5016587;28;20574;-67
2023/09/04 12:09:36;;;;;;;4.18;3.88;;;26.50;71.40;;;;;;5009457;28;20026;-68
2023/09/04 12:12:04;;;;;;;4.75;3.20;;;26.60;71.30;;;;;;5014899;28;20025;-68
2023/09/04 12:14:30;;;;;;;4.00;3.50;;;26.70;71.20;;;;;;5018164;28;20366;-68
2023/09/04 12:16:58;;;;;;;4.18;3.35;;;26.70;71.00;;;;;;5018747;28;20049;-68
2023/09/04 12:19:25;;;;;;;3.30;3.05;;;26.80;71.40;;;;;;5011519;28;20525;-67
2023/09/04 12:21:52;;;;;;;3.50;3.20;;;26.90;70.70;;;;;;5014270;28;20307;-67
2023/09/04 12:24:19;;;;;;;3.33;3.03;;;26.90;70.60;;;;;;5019390;28;20528;-68
2023/09/04 12:26:48;;;;;;;3.00;2.55;;;27.00;70.50;;;;;;5009801;28;20067;-68
2023/09/04 12:29:15;;;;;;;2.75;2.55;;;27.00;70.30;;;;;;5020017;28;20112;-68
2023/09/04 12:31:42;;;;;;;5.50;2.80;;;27.10;70.70;;;;;;5017344;28;20072;-68
2023/09/04 12:34:08;;;;;;;3.05;2.85;;;27.10;70.00;;;;;;5010890;28;20029;-68
2023/09/04 12:36:35;;;;;;;2.90;2.70;;;27.20;70.00;;;;;;5011768;28;20025;-68
2023/09/04 12:39:02;;;;;;;3.13;2.92;;;27.20;69.80;;;;;;5014520;28;20623;-67
2023/09/04 12:41:28;;;;;;;3.22;3.03;;;27.30;69.70;;;;;;5020739;28;20048;-68
2023/09/04 12:43:55;;;;;;;3.25;2.97;;;27.30;69.50;;;;;;5031783;28;20042;-68
2023/09/04 12:46:21;;;;;;;3.28;2.97;;;27.40;69.50;;;;;;5012421;28;20071;-67